createdAt,value
2018-05-23T00:00:43.668Z,13.90
2018-05-23T00:03:12.092Z,14.53
2018-05-23T00:05:40.676Z,9.17
2018-05-23T00:08:09.089Z,12.50
2018-05-23T00:10:37.536Z,11.60
2018-05-23T00:13:05.901Z,11.93
2018-05-23T00:15:34.322Z,12.43
2018-05-23T00:18:02.708Z,12.87
2018-05-23T00:20:31.111Z,16.87
2018-05-23T00:22:59.503Z,39.53
2018-05-23T00:25:27.885Z,150.40
2018-05-23T00:27:56.381Z,92.53
2018-05-23T00:30:24.759Z,47.47
2018-05-23T00:32:53.129Z,33.83
2018-05-23T00:35:21.640Z,14.67
2018-05-23T00:37:50.179Z,14.10
2018-05-23T00:40:18.604Z,10.97
2018-05-23T00:42:46.982Z,13.70
2018-05-23T00:45:15.476Z,14.17
2018-05-23T00:47:43.859Z,13.97
2018-05-23T00:50:12.440Z,12.53
2018-05-23T00:52:40.754Z,14.60
2018-05-23T00:55:20.776Z,10.13
2018-05-23T00:57:49.143Z,12.63
2018-05-23T01:00:17.545Z,11.00
2018-05-23T01:02:46.036Z,12.37
2018-05-23T01:05:14.455Z,11.23
2018-05-23T01:07:42.850Z,10.70
2018-05-23T01:10:11.331Z,11.70
2018-05-23T01:12:39.762Z,13.50
2018-05-23T01:15:08.172Z,10.43
2018-05-23T01:17:36.625Z,16.00
2018-05-23T01:20:05.011Z,14.93
2018-05-23T01:22:33.523Z,15.67
2018-05-23T01:25:01.920Z,14.37
2018-05-23T01:27:30.355Z,11.70
2018-05-23T01:29:58.795Z,12.63
2018-05-23T01:32:27.275Z,13.57
2018-05-23T01:34:55.716Z,15.13
2018-05-23T01:37:24.135Z,15.67
2018-05-23T01:39:52.613Z,16.20
2018-05-23T01:42:21.164Z,13.10
2018-05-23T01:44:49.599Z,14.60
2018-05-23T01:47:18.035Z,12.97
2018-05-23T01:49:46.479Z,12.90
2018-05-23T01:52:14.979Z,12.07
2018-05-23T01:54:43.492Z,15.20
2018-05-23T01:57:11.948Z,16.37
2018-05-23T01:59:40.355Z,15.73
2018-05-23T02:02:08.751Z,14.83
2018-05-23T02:04:37.246Z,17.37
2018-05-23T02:07:05.727Z,19.07
2018-05-23T02:09:34.166Z,15.37
2018-05-23T02:12:02.611Z,16.13
2018-05-23T02:14:31.071Z,12.87
2018-05-23T02:16:59.510Z,13.93
2018-05-23T02:19:27.920Z,19.00
2018-05-23T02:21:56.445Z,15.40
2018-05-23T02:24:24.939Z,14.87
2018-05-23T02:26:53.364Z,15.43
2018-05-23T02:29:21.792Z,13.60
2018-05-23T02:31:50.245Z,22.13
2018-05-23T02:34:18.639Z,24.70
2018-05-23T02:36:47.029Z,15.90
2018-05-23T02:39:15.450Z,16.37
2018-05-23T02:41:43.810Z,19.60
2018-05-23T02:44:12.222Z,17.57
2018-05-23T02:46:40.636Z,17.83
2018-05-23T02:49:09.099Z,16.57
2018-05-23T02:51:37.538Z,18.67
2018-05-23T02:54:05.999Z,17.27
2018-05-23T02:56:34.442Z,15.63
2018-05-23T02:59:02.878Z,16.20
2018-05-23T03:01:31.312Z,22.73
2018-05-23T03:03:59.725Z,18.27
2018-05-23T03:06:28.207Z,22.27
2018-05-23T03:08:56.591Z,25.83
2018-05-23T03:11:24.966Z,23.20
2018-05-23T03:13:53.396Z,29.23
2018-05-23T03:16:21.793Z,21.17
2018-05-23T03:18:50.227Z,24.13
2018-05-23T03:21:18.643Z,24.57
2018-05-23T03:23:47.057Z,27.97
2018-05-23T03:26:15.531Z,22.03
2018-05-23T03:28:44.060Z,21.00
2018-05-23T03:31:12.508Z,22.93
2018-05-23T03:33:40.938Z,23.50
2018-05-23T03:36:09.311Z,26.30
2018-05-23T03:38:37.743Z,27.77
2018-05-23T03:41:06.243Z,27.30
2018-05-23T03:43:34.627Z,23.37
2018-05-23T03:46:03.035Z,25.70
2018-05-23T03:48:31.527Z,27.93
2018-05-23T03:50:59.914Z,26.33
2018-05-23T03:53:28.396Z,26.87
2018-05-23T03:55:57.022Z,30.87
2018-05-23T03:58:25.431Z,22.33
2018-05-23T04:01:05.616Z,28.03
2018-05-23T04:03:46.024Z,24.73
2018-05-23T04:09:16.521Z,23.43
2018-05-23T04:11:44.945Z,19.63
2018-05-23T04:14:13.450Z,26.27
2018-05-23T04:16:41.909Z,29.87
2018-05-23T04:19:10.381Z,23.97
2018-05-23T04:21:38.819Z,22.40
2018-05-23T04:24:07.263Z,25.83
2018-05-23T04:26:35.665Z,21.83
2018-05-23T04:29:04.147Z,30.00
2018-05-23T04:31:32.598Z,24.47
2018-05-23T04:34:01.043Z,22.60
2018-05-23T04:36:29.547Z,27.00
2018-05-23T04:38:57.943Z,23.50
2018-05-23T04:41:26.356Z,23.13
2018-05-23T04:43:54.860Z,27.43
2018-05-23T04:46:23.429Z,32.87
2018-05-23T04:48:51.885Z,25.80
2018-05-23T04:51:20.317Z,28.50
2018-05-23T04:53:48.802Z,21.10
2018-05-23T04:56:17.228Z,30.17
2018-05-23T04:58:45.686Z,28.40
2018-05-23T05:01:14.075Z,23.80
2018-05-23T05:03:42.504Z,23.63
2018-05-23T05:06:10.971Z,25.87
2018-05-23T05:08:39.789Z,26.57
2018-05-23T05:11:08.183Z,23.67
2018-05-23T05:13:36.613Z,24.27
2018-05-23T05:16:05.064Z,27.57
2018-05-23T05:18:33.525Z,25.23
2018-05-23T05:21:01.996Z,25.63
2018-05-23T05:23:30.435Z,26.20
2018-05-23T05:25:58.861Z,24.97
2018-05-23T05:28:27.403Z,26.10
2018-05-23T05:30:55.806Z,21.33
2018-05-23T05:33:24.206Z,27.70
2018-05-23T05:35:52.634Z,20.57
2018-05-23T05:38:21.021Z,23.97
2018-05-23T05:40:49.465Z,26.20
2018-05-23T05:43:17.922Z,24.07
2018-05-23T05:45:46.418Z,27.70
2018-05-23T05:48:14.855Z,25.13
2018-05-23T05:50:43.266Z,27.13
2018-05-23T05:53:11.712Z,27.53
2018-05-23T05:55:40.130Z,22.10
2018-05-23T05:58:08.743Z,29.87
2018-05-23T06:00:37.305Z,33.87
2018-05-23T06:03:05.791Z,37.53
2018-05-23T06:05:34.264Z,21.17
2018-05-23T06:08:02.726Z,28.27
2018-05-23T06:10:31.256Z,21.23
2018-05-23T06:12:59.632Z,30.70
2018-05-23T06:15:28.066Z,23.47
2018-05-23T06:17:56.565Z,26.07
2018-05-23T06:20:24.974Z,26.77
2018-05-23T06:22:53.404Z,24.63
2018-05-23T06:25:21.791Z,27.07
2018-05-23T06:27:50.207Z,26.47
2018-05-23T06:30:18.734Z,26.13
2018-05-23T06:32:47.127Z,28.43
2018-05-23T06:35:15.603Z,39.63
2018-05-23T06:37:44.039Z,22.83
2018-05-23T06:40:12.459Z,20.73
2018-05-23T06:42:40.852Z,21.37
2018-05-23T06:45:09.275Z,30.77
2018-05-23T06:47:37.647Z,22.53
2018-05-23T06:50:06.199Z,26.97
2018-05-23T06:52:34.519Z,24.97
2018-05-23T06:55:02.887Z,26.73
2018-05-23T06:57:31.343Z,21.67
2018-05-23T06:59:59.769Z,23.97
2018-05-23T07:02:28.156Z,31.57
2018-05-23T07:04:56.657Z,26.50
2018-05-23T07:07:25.123Z,25.77
2018-05-23T07:09:53.518Z,22.43
2018-05-23T07:12:21.928Z,25.97
2018-05-23T07:14:50.353Z,21.53
2018-05-23T07:17:18.950Z,21.73
2018-05-23T07:19:47.332Z,21.53
2018-05-23T07:22:15.770Z,24.70
2018-05-23T07:24:44.148Z,22.00
2018-05-23T07:27:12.652Z,30.07
2018-05-23T07:29:41.089Z,22.37
2018-05-23T07:32:09.500Z,30.23
2018-05-23T07:34:37.942Z,28.17
2018-05-23T07:37:06.405Z,25.10
2018-05-23T07:39:34.829Z,24.07
2018-05-23T07:42:03.202Z,27.13
2018-05-23T07:44:31.636Z,28.87
2018-05-23T07:47:00.008Z,23.33
2018-05-23T07:49:28.439Z,19.27
2018-05-23T07:51:56.850Z,20.20
2018-05-23T07:54:25.331Z,25.23
2018-05-23T07:56:53.909Z,18.07
2018-05-23T07:59:22.283Z,21.87
2018-05-23T08:01:50.726Z,17.45
2018-05-23T08:04:19.116Z,33.13
2018-05-23T08:06:47.571Z,18.15
2018-05-23T08:09:16.003Z,22.95
2018-05-23T08:11:44.421Z,17.05
2018-05-23T08:14:12.872Z,16.60
2018-05-23T08:16:41.335Z,21.27
2018-05-23T08:19:09.798Z,18.15
2018-05-23T08:21:38.231Z,15.90
2018-05-23T08:24:06.638Z,16.08
2018-05-23T08:26:35.101Z,20.10
2018-05-23T08:29:03.578Z,17.62
2018-05-23T08:31:31.979Z,18.58
2018-05-23T08:34:00.427Z,20.85
2018-05-23T08:36:29.049Z,24.05
2018-05-23T08:38:57.588Z,19.90
2018-05-23T08:41:26.137Z,21.40
2018-05-23T08:43:54.627Z,19.77
2018-05-23T08:46:23.059Z,17.90
2018-05-23T08:48:51.542Z,19.30
2018-05-23T08:51:19.967Z,13.13
2018-05-23T08:53:48.372Z,20.85
2018-05-23T08:56:16.798Z,22.62
2018-05-23T08:58:45.236Z,17.15
2018-05-23T09:01:13.714Z,17.52
2018-05-23T09:03:42.256Z,21.80
2018-05-23T09:06:10.680Z,22.55
2018-05-23T09:08:39.209Z,18.37
2018-05-23T09:11:07.672Z,12.55
2018-05-23T09:13:36.123Z,18.23
2018-05-23T09:16:04.572Z,15.20
2018-05-23T09:18:33.041Z,18.50
2018-05-23T09:21:01.465Z,17.37
2018-05-23T09:23:29.903Z,16.20
2018-05-23T09:25:58.335Z,28.65
2018-05-23T09:28:26.759Z,15.00
2018-05-23T09:30:55.199Z,15.43
2018-05-23T09:33:23.604Z,11.25
2018-05-23T09:35:52.027Z,11.07
2018-05-23T09:38:20.593Z,8.68
2018-05-23T09:40:49.087Z,16.00
2018-05-23T09:43:17.534Z,10.00
2018-05-23T09:45:45.917Z,17.62
2018-05-23T09:48:14.327Z,22.90
2018-05-23T09:50:42.784Z,14.30
2018-05-23T09:53:11.179Z,17.58
2018-05-23T09:55:39.603Z,14.18
2018-05-23T09:58:08.048Z,17.77
2018-05-23T10:00:36.505Z,27.77
2018-05-23T10:03:04.927Z,16.25
2018-05-23T10:05:33.320Z,9.93
2018-05-23T10:08:01.818Z,16.83
2018-05-23T10:10:30.414Z,13.60
2018-05-23T10:12:58.790Z,17.98
2018-05-23T10:15:27.224Z,14.73
2018-05-23T10:17:55.758Z,9.68
2018-05-23T10:20:24.191Z,17.05
2018-05-23T10:22:52.600Z,18.85
2018-05-23T10:25:20.991Z,8.40
2018-05-23T10:27:49.448Z,7.90
2018-05-23T10:30:17.856Z,8.32
2018-05-23T10:32:46.394Z,9.35
2018-05-23T10:35:14.782Z,12.77
2018-05-23T10:37:43.216Z,14.30
2018-05-23T10:40:11.600Z,9.70
2018-05-23T10:42:40.024Z,13.80
2018-05-23T10:45:08.381Z,13.23
2018-05-23T10:47:36.792Z,15.82
2018-05-23T10:50:05.218Z,15.65
2018-05-23T10:52:33.599Z,11.02
2018-05-23T10:55:02.027Z,8.70
2018-05-23T10:57:30.400Z,9.73
2018-05-23T10:59:58.832Z,12.13
2018-05-23T11:02:27.238Z,12.60
2018-05-23T11:04:55.701Z,8.70
2018-05-23T11:07:24.068Z,6.80
2018-05-23T11:09:52.467Z,14.55
2018-05-23T11:12:20.951Z,12.23
2018-05-23T11:14:49.400Z,17.95
2018-05-23T11:17:17.773Z,14.60
2018-05-23T11:19:46.187Z,13.07
2018-05-23T11:22:14.663Z,16.15
2018-05-23T11:24:43.041Z,18.33
2018-05-23T11:27:11.514Z,8.10
2018-05-23T11:29:39.982Z,12.25
2018-05-23T11:32:08.385Z,9.95
2018-05-23T11:34:36.764Z,7.85
2018-05-23T11:37:05.184Z,11.88
2018-05-23T11:39:33.627Z,10.45
2018-05-23T11:42:02.027Z,11.45
2018-05-23T11:44:30.399Z,8.85
2018-05-23T11:46:58.798Z,7.72
2018-05-23T11:49:27.179Z,14.90
2018-05-23T11:51:55.600Z,13.75
2018-05-23T11:54:24.134Z,14.70
2018-05-23T11:56:52.575Z,6.85
2018-05-23T11:59:20.980Z,8.85
2018-05-23T12:01:49.466Z,11.35
2018-05-23T12:04:17.839Z,8.95
2018-05-23T12:06:46.251Z,12.70
2018-05-23T12:09:14.617Z,10.27
2018-05-23T12:11:43.102Z,20.85
2018-05-23T12:14:11.538Z,11.10
2018-05-23T12:16:40.003Z,16.37
2018-05-23T12:19:08.432Z,13.73
2018-05-23T12:21:36.818Z,12.30
2018-05-23T12:24:05.251Z,14.77
2018-05-23T12:26:33.794Z,16.77
2018-05-23T12:29:02.225Z,14.93
2018-05-23T12:31:30.695Z,8.85
2018-05-23T12:33:59.106Z,10.50
2018-05-23T12:36:27.507Z,11.80
2018-05-23T12:38:55.907Z,11.23
2018-05-23T12:41:24.271Z,12.60
2018-05-23T12:43:52.631Z,18.15
2018-05-23T12:46:21.050Z,10.05
2018-05-23T12:48:49.487Z,14.02
2018-05-23T12:51:17.896Z,12.20
2018-05-23T12:53:46.267Z,12.25
2018-05-23T12:56:14.860Z,9.20
2018-05-23T12:58:43.247Z,14.25
2018-05-23T13:01:11.646Z,14.73
2018-05-23T13:03:40.075Z,12.98
2018-05-23T13:06:08.463Z,7.93
2018-05-23T13:08:36.868Z,9.65
2018-05-23T13:11:05.247Z,9.48
2018-05-23T13:13:33.666Z,11.93
2018-05-23T13:16:06.512Z,10.75
2018-05-23T13:18:35.379Z,8.55
2018-05-23T13:21:04.495Z,11.18
2018-05-23T13:23:33.573Z,8.57
2018-05-23T13:26:05.110Z,10.10
2018-05-23T13:28:35.410Z,12.57
2018-05-23T13:31:04.895Z,15.57
2018-05-23T13:33:34.565Z,11.18
2018-05-23T13:36:03.142Z,8.05
2018-05-23T13:38:31.526Z,13.48
2018-05-23T13:40:59.933Z,16.95
2018-05-23T13:43:28.354Z,15.48
2018-05-23T13:45:56.788Z,15.18
2018-05-23T13:48:25.209Z,14.77
2018-05-23T13:50:53.608Z,11.75
2018-05-23T13:53:22.383Z,23.40
2018-05-23T13:55:50.765Z,12.13
2018-05-23T13:58:19.171Z,17.70
2018-05-23T14:00:47.652Z,19.87
2018-05-23T14:03:16.090Z,10.45
2018-05-23T14:05:44.486Z,10.82
2018-05-23T14:08:12.855Z,16.37
2018-05-23T14:10:41.295Z,15.57
2018-05-23T14:13:09.666Z,22.60
2018-05-23T14:15:38.080Z,17.60
2018-05-23T14:18:06.538Z,12.55
2018-05-23T14:20:34.920Z,26.50
2018-05-23T14:23:03.430Z,10.70
2018-05-23T14:25:31.823Z,12.98
2018-05-23T14:28:00.256Z,14.60
2018-05-23T14:30:28.654Z,17.70
2018-05-23T14:32:57.070Z,12.45
2018-05-23T14:35:25.475Z,17.23
2018-05-23T14:37:53.883Z,16.83
2018-05-23T14:40:22.307Z,17.12
2018-05-23T14:42:50.732Z,17.47
2018-05-23T14:45:19.182Z,16.53
2018-05-23T14:47:47.647Z,14.10
2018-05-23T14:50:16.079Z,9.57
2018-05-23T14:52:44.462Z,12.37
2018-05-23T14:55:12.907Z,23.67
2018-05-23T14:57:41.430Z,8.70
2018-05-23T15:00:09.908Z,15.83
2018-05-23T15:02:38.400Z,19.67
2018-05-23T15:05:06.835Z,10.40
2018-05-23T15:07:35.223Z,12.57
2018-05-23T15:10:03.676Z,12.80
2018-05-23T15:12:32.202Z,11.13
2018-05-23T15:15:00.662Z,17.20
2018-05-23T15:17:29.071Z,17.10
2018-05-23T15:19:57.703Z,16.00
2018-05-23T15:22:25.946Z,21.27
2018-05-23T15:24:54.364Z,14.03
2018-05-23T15:27:22.816Z,10.13
2018-05-23T15:29:51.229Z,8.17
2018-05-23T15:32:19.622Z,9.63
2018-05-23T15:34:48.025Z,10.07
2018-05-23T15:37:16.619Z,7.50
2018-05-23T15:39:44.987Z,6.53
2018-05-23T15:42:13.429Z,8.33
2018-05-23T15:44:41.807Z,7.80
2018-05-23T15:47:10.197Z,8.90
2018-05-23T15:49:38.608Z,12.10
2018-05-23T15:52:07.060Z,7.20
2018-05-23T15:54:35.511Z,10.80
2018-05-23T15:57:03.940Z,16.30
2018-05-23T15:59:32.306Z,12.97
2018-05-23T16:02:00.767Z,4.47
2018-05-23T16:04:29.222Z,7.93
2018-05-23T16:06:57.661Z,7.83
2018-05-23T16:09:26.087Z,14.90
2018-05-23T16:11:54.519Z,13.83
2018-05-23T16:14:22.904Z,10.43
2018-05-23T16:16:51.262Z,7.30
2018-05-23T16:19:19.652Z,10.27
2018-05-23T16:21:48.070Z,8.00
2018-05-23T16:24:16.483Z,7.93
2018-05-23T16:26:44.892Z,11.63
2018-05-23T16:29:13.268Z,6.43
2018-05-23T16:31:41.645Z,6.10
2018-05-23T16:34:10.063Z,7.87
2018-05-23T16:36:38.499Z,12.77
2018-05-23T16:39:06.925Z,10.60
2018-05-23T16:41:35.298Z,7.87
2018-05-23T16:44:03.654Z,9.97
2018-05-23T16:46:32.068Z,5.53
2018-05-23T16:49:00.548Z,7.30
2018-05-23T16:51:28.943Z,17.07
2018-05-23T16:53:57.363Z,7.13
2018-05-23T16:56:25.770Z,5.33
2018-05-23T16:58:54.191Z,11.17
2018-05-23T17:01:22.569Z,24.20
2018-05-23T17:03:50.986Z,29.90
2018-05-23T17:06:19.401Z,15.67
2018-05-23T17:08:47.771Z,11.10
2018-05-23T17:11:16.219Z,8.57
2018-05-23T17:13:44.580Z,11.90
2018-05-23T17:16:12.992Z,10.13
2018-05-23T17:18:41.379Z,9.77
2018-05-23T17:21:09.815Z,11.10
2018-05-23T17:23:38.170Z,6.20
2018-05-23T17:26:06.595Z,20.50
2018-05-23T17:28:34.961Z,7.37
2018-05-23T17:31:03.371Z,11.30
2018-05-23T17:33:31.838Z,10.00
2018-05-23T17:36:00.956Z,7.70
2018-05-23T17:38:29.371Z,8.67
2018-05-23T17:40:57.779Z,15.87
2018-05-23T17:43:26.164Z,22.67
2018-05-23T17:45:54.642Z,9.33
2018-05-23T17:48:23.011Z,10.07
2018-05-23T17:50:51.428Z,10.63
2018-05-23T17:53:19.847Z,13.97
2018-05-23T17:55:48.256Z,8.40
2018-05-23T17:58:16.672Z,12.77
2018-05-23T18:00:45.122Z,11.50
2018-05-23T18:03:13.601Z,13.93
2018-05-23T18:05:42.019Z,17.03
2018-05-23T18:08:10.467Z,9.13
2018-05-23T18:10:38.855Z,8.90
2018-05-23T18:13:07.291Z,13.90
2018-05-23T18:15:35.823Z,8.63
2018-05-23T18:18:04.324Z,7.90
2018-05-23T18:20:32.850Z,10.80
2018-05-23T18:23:01.161Z,14.17
2018-05-23T18:25:29.571Z,12.97
2018-05-23T18:27:57.942Z,13.20
2018-05-23T18:30:26.366Z,10.17
2018-05-23T18:32:54.773Z,14.23
2018-05-23T18:35:23.152Z,9.30
2018-05-23T18:37:51.545Z,9.03
2018-05-23T18:40:19.960Z,10.57
2018-05-23T18:42:48.338Z,15.43
2018-05-23T18:45:16.772Z,6.67
2018-05-23T18:47:45.218Z,9.93
2018-05-23T18:50:13.612Z,10.53
2018-05-23T18:52:42.171Z,6.77
2018-05-23T18:55:10.595Z,6.90
2018-05-23T18:57:38.980Z,9.83
2018-05-23T19:00:07.396Z,9.93
2018-05-23T19:02:35.850Z,8.63
2018-05-23T19:05:04.285Z,9.70
2018-05-23T19:07:32.696Z,11.87
2018-05-23T19:10:01.092Z,10.57
2018-05-23T19:12:29.544Z,10.40
2018-05-23T19:14:57.919Z,8.20
2018-05-23T19:17:26.339Z,16.17
2018-05-23T19:19:54.756Z,14.93
2018-05-23T19:22:23.151Z,7.67
2018-05-23T19:24:51.517Z,10.67
2018-05-23T19:27:19.937Z,11.40
2018-05-23T19:29:48.325Z,11.17
2018-05-23T19:32:16.754Z,14.73
2018-05-23T19:34:45.164Z,15.77
2018-05-23T19:37:13.567Z,11.83
2018-05-23T19:39:42.017Z,9.40
2018-05-23T19:42:10.418Z,9.63
2018-05-23T19:44:38.888Z,11.50
2018-05-23T19:47:07.349Z,14.00
2018-05-23T19:49:35.712Z,15.07
2018-05-23T19:52:04.132Z,11.20
2018-05-23T19:54:32.559Z,10.77
2018-05-23T19:57:00.942Z,13.43
2018-05-23T19:59:29.325Z,12.03
2018-05-23T20:01:57.757Z,10.30
2018-05-23T20:04:26.218Z,12.90
2018-05-23T20:06:54.758Z,8.57
2018-05-23T20:09:23.150Z,12.00
2018-05-23T20:11:51.577Z,12.70
2018-05-23T20:14:20.221Z,10.50
2018-05-23T20:16:48.459Z,10.00
2018-05-23T20:19:16.879Z,9.33
2018-05-23T20:21:45.269Z,13.17
2018-05-23T20:24:13.699Z,13.47
2018-05-23T20:26:42.082Z,13.13
2018-05-23T20:29:10.586Z,9.13
2018-05-23T20:31:38.971Z,11.90
2018-05-23T20:34:07.382Z,12.50
2018-05-23T20:36:35.826Z,12.77
2018-05-23T20:39:04.308Z,15.37
2018-05-23T20:41:32.696Z,12.97
2018-05-23T20:44:01.104Z,12.33
2018-05-23T20:46:29.473Z,9.30
2018-05-23T20:48:57.907Z,8.73
2018-05-23T20:51:26.271Z,11.87
2018-05-23T20:53:54.666Z,9.50
2018-05-23T20:56:23.035Z,13.43
2018-05-23T20:58:51.505Z,11.70
2018-05-23T21:01:19.882Z,10.07
2018-05-23T21:03:48.296Z,10.17
2018-05-23T21:06:16.714Z,14.33
2018-05-23T21:08:45.113Z,7.90
2018-05-23T21:11:13.475Z,10.60
2018-05-23T21:13:41.893Z,14.10
2018-05-23T21:16:10.363Z,10.10
2018-05-23T21:18:38.788Z,9.80
2018-05-23T21:21:07.247Z,13.13
2018-05-23T21:23:35.667Z,12.20
2018-05-23T21:26:04.157Z,14.07
2018-05-23T21:28:32.583Z,13.93
2018-05-23T21:31:01.005Z,9.40
2018-05-23T21:33:29.465Z,10.43
2018-05-23T21:35:57.875Z,9.67
2018-05-23T21:38:27.104Z,14.40
2018-05-23T21:40:55.581Z,11.93
2018-05-23T21:43:23.996Z,11.23
2018-05-23T21:45:52.392Z,10.13
2018-05-23T21:48:20.751Z,11.43
2018-05-23T21:50:49.160Z,11.40
2018-05-23T21:53:17.567Z,9.20
2018-05-23T21:55:45.931Z,6.40
2018-05-23T21:58:14.307Z,17.97
2018-05-23T22:00:42.679Z,9.43
2018-05-23T22:03:11.076Z,14.27
2018-05-23T22:05:39.455Z,8.53
2018-05-23T22:08:07.859Z,12.50
2018-05-23T22:10:36.252Z,10.20
2018-05-23T22:13:04.619Z,11.20
2018-05-23T22:15:33.155Z,8.30
2018-05-23T22:18:01.528Z,12.07
2018-05-23T22:20:29.907Z,7.40
2018-05-23T22:22:58.313Z,11.63
2018-05-23T22:25:26.688Z,10.73
2018-05-23T22:27:55.123Z,7.40
2018-05-23T22:30:23.583Z,11.40
2018-05-23T22:32:51.903Z,7.33
2018-05-23T22:35:20.275Z,13.93
2018-05-23T22:37:48.675Z,11.47
2018-05-23T22:40:17.040Z,12.77
2018-05-23T22:42:45.450Z,10.40
2018-05-23T22:45:13.810Z,10.00
2018-05-23T22:47:42.219Z,10.63
2018-05-23T22:50:10.580Z,8.33
2018-05-23T22:52:39.043Z,8.13
2018-05-23T22:55:07.400Z,7.83
2018-05-23T22:57:35.784Z,8.73
2018-05-23T23:00:04.172Z,9.83
2018-05-23T23:02:32.377Z,9.30
2018-05-23T23:05:00.786Z,10.93
2018-05-23T23:07:29.198Z,6.37
2018-05-23T23:09:57.560Z,8.70
2018-05-23T23:12:25.964Z,11.90
2018-05-23T23:14:54.336Z,8.03
2018-05-23T23:17:22.715Z,11.97
2018-05-23T23:19:51.076Z,10.20
2018-05-23T23:22:31.255Z,9.43
2018-05-23T23:24:59.648Z,10.30
2018-05-23T23:27:28.059Z,11.73
2018-05-23T23:29:56.499Z,10.80
2018-05-23T23:32:24.896Z,11.40
2018-05-23T23:34:53.307Z,8.40
2018-05-23T23:37:21.732Z,11.67
2018-05-23T23:39:50.151Z,9.10
2018-05-23T23:42:18.515Z,9.43
2018-05-23T23:44:46.965Z,10.80
2018-05-23T23:47:15.359Z,13.00
2018-05-23T23:49:43.743Z,11.03
2018-05-23T23:52:12.174Z,10.77
2018-05-23T23:54:40.610Z,13.93
2018-05-23T23:57:09.043Z,13.27
2018-05-23T23:59:37.422Z,12.23
